Terminal Aerodrome Forecast
Issued by NWS Duluth, MN

Home | Current Version | Previous Version | Text Only | Print | Product List | Glossary On
Versions: 1 2 3 4 5 6 7 8 9 10 11 12 13 14 15 16 17 18 19 20 21 22 23 24 25 26 27
000
FTUS43 KDLH 200911 AAA
TAFDLH
TAF AMD
KDLH 200911Z 2009/2106 08016G22KT 4SM -SNRA BR OVC006
      TEMPO 2009/2010 2SM -SN OVC005
     FM201000 06015G25KT 5SM -RASN BR OVC006
     FM201400 05020G30KT 3SM -RASN OVC003
     FM210000 03008KT 2SM -RA OVC003
     FM210100 35006KT 1 1/2SM BR OVC007=

USA.gov is the U.S. government's official web portal to all federal, state and local government web resources and services.